sensor_id;sensor_type;location;lat;lon;timestamp;pressure;altitude;pressure_sealevel;temperature;humidity
72961;BME280;61141;46.204;19.774;2023-03-14T00:00:57;99907.94;;;6.69;56.11
72961;BME280;61141;46.204;19.774;2023-03-14T00:04:00;99901.72;;;6.69;55.93
72961;BME280;61141;46.204;19.774;2023-03-14T00:07:03;99909.34;;;6.79;55.74
72961;BME280;61141;46.204;19.774;2023-03-14T00:10:09;99905.03;;;6.78;56.24
72961;BME280;61141;46.204;19.774;2023-03-14T00:13:13;99907.44;;;6.64;56.49
72961;BME280;61141;46.204;19.774;2023-03-14T00:16:16;99903.75;;;6.56;56.24
72961;BME280;61141;46.204;19.774;2023-03-14T00:19:18;99906.22;;;6.45;56.75
72961;BME280;61141;46.204;19.774;2023-03-14T00:22:21;99899.91;;;6.41;56.69
72961;BME280;61141;46.204;19.774;2023-03-14T00:25:24;99902.63;;;6.41;57.19
72961;BME280;61141;46.204;19.774;2023-03-14T00:28:27;99903.69;;;6.37;57.47
72961;BME280;61141;46.204;19.774;2023-03-14T00:31:30;99910.25;;;6.36;57.79
72961;BME280;61141;46.204;19.774;2023-03-14T00:34:33;99895.88;;;6.35;58.21
72961;BME280;61141;46.204;19.774;2023-03-14T00:37:36;99892.72;;;6.33;58.66
72961;BME280;61141;46.204;19.774;2023-03-14T00:40:41;99891.12;;;6.32;58.04
72961;BME280;61141;46.204;19.774;2023-03-14T00:43:45;99860.28;;;6.09;57.92
72961;BME280;61141;46.204;19.774;2023-03-14T00:46:48;99876.06;;;6.19;59.14
72961;BME280;61141;46.204;19.774;2023-03-14T00:49:51;99855.44;;;6.03;57.52
72961;BME280;61141;46.204;19.774;2023-03-14T00:52:54;99864.81;;;6.05;58.49
72961;BME280;61141;46.204;19.774;2023-03-14T00:56:03;99883.94;;;6.24;58.13
72961;BME280;61141;46.204;19.774;2023-03-14T00:59:07;99876.16;;;6.07;58.33
72961;BME280;61141;46.204;19.774;2023-03-14T01:02:09;99874.03;;;6.16;58.52
72961;BME280;61141;46.204;19.774;2023-03-14T01:05:13;99867.56;;;6.21;58.54
72961;BME280;61141;46.204;19.774;2023-03-14T01:08:17;99866.94;;;6.12;58.32
72961;BME280;61141;46.204;19.774;2023-03-14T01:11:26;99856.59;;;6.17;59.09
72961;BME280;61141;46.204;19.774;2023-03-14T01:14:29;99854.13;;;6.12;58.47
72961;BME280;61141;46.204;19.774;2023-03-14T01:17:33;99841.25;;;6.09;58.15
72961;BME280;61141;46.204;19.774;2023-03-14T01:20:36;99836.94;;;6.08;57.91
72961;BME280;61141;46.204;19.774;2023-03-14T01:23:40;99838.44;;;6.21;57.71
72961;BME280;61141;46.204;19.774;2023-03-14T01:26:42;99838.44;;;6.21;57.79
72961;BME280;61141;46.204;19.774;2023-03-14T01:29:45;99837.53;;;6.33;57.41
72961;BME280;61141;46.204;19.774;2023-03-14T01:32:50;99836.72;;;6.32;57.44
72961;BME280;61141;46.204;19.774;2023-03-14T01:35:53;99819.91;;;6.27;57.15
72961;BME280;61141;46.204;19.774;2023-03-14T01:38:56;99806.88;;;6.01;56.57
72961;BME280;61141;46.204;19.774;2023-03-14T01:42:00;99811.34;;;6.09;57.21
72961;BME280;61141;46.204;19.774;2023-03-14T01:45:03;99832.22;;;6.21;57.49
72961;BME280;61141;46.204;19.774;2023-03-14T01:48:07;99827.28;;;6.26;58.05
72961;BME280;61141;46.204;19.774;2023-03-14T01:51:44;99831.75;;;6.19;57.44
72961;BME280;61141;46.204;19.774;2023-03-14T01:54:53;99829.22;;;6.10;57.84
72961;BME280;61141;46.204;19.774;2023-03-14T01:58:00;99809.69;;;6.05;58.07
72961;BME280;61141;46.204;19.774;2023-03-14T02:01:04;99817.84;;;6.05;58.10
72961;BME280;61141;46.204;19.774;2023-03-14T02:04:11;99818.41;;;6.14;58.41
72961;BME280;61141;46.204;19.774;2023-03-14T02:07:22;99812.97;;;6.14;58.12
72961;BME280;61141;46.204;19.774;2023-03-14T02:10:35;99817.03;;;6.20;58.99
72961;BME280;61141;46.204;19.774;2023-03-14T02:13:39;99805.28;;;6.16;58.35
72961;BME280;61141;46.204;19.774;2023-03-14T02:16:43;99801.75;;;6.31;58.63
72961;BME280;61141;46.204;19.774;2023-03-14T02:23:03;99796.16;;;6.24;57.74
72961;BME280;61141;46.204;19.774;2023-03-14T02:26:22;99787.28;;;6.27;58.43
72961;BME280;61141;46.204;19.774;2023-03-14T02:29:27;99780.25;;;6.26;58.22
72961;BME280;61141;46.204;19.774;2023-03-14T02:32:32;99795.41;;;6.42;58.61
72961;BME280;61141;46.204;19.774;2023-03-14T02:35:41;99801.63;;;6.43;58.53
72961;BME280;61141;46.204;19.774;2023-03-14T02:39:01;99790.75;;;6.43;58.01
72961;BME280;61141;46.204;19.774;2023-03-14T02:42:09;99795.50;;;6.30;57.86
72961;BME280;61141;46.204;19.774;2023-03-14T02:48:21;99781.81;;;6.42;59.30
72961;BME280;61141;46.204;19.774;2023-03-14T02:51:26;99769.00;;;6.43;59.38
72961;BME280;61141;46.204;19.774;2023-03-14T02:54:29;99771.53;;;6.52;58.63
72961;BME280;61141;46.204;19.774;2023-03-14T02:57:33;99770.16;;;6.61;58.60
72961;BME280;61141;46.204;19.774;2023-03-14T03:00:37;99761.19;;;6.41;57.82
72961;BME280;61141;46.204;19.774;2023-03-14T03:03:41;99760.47;;;6.44;58.12
72961;BME280;61141;46.204;19.774;2023-03-14T03:06:44;99760.88;;;6.46;59.50
72961;BME280;61141;46.204;19.774;2023-03-14T03:09:47;99752.69;;;6.43;58.92
72961;BME280;61141;46.204;19.774;2023-03-14T03:12:51;99758.38;;;6.38;59.48
72961;BME280;61141;46.204;19.774;2023-03-14T03:15:57;99749.34;;;6.34;59.10
72961;BME280;61141;46.204;19.774;2023-03-14T03:19:00;99751.00;;;6.38;59.30
72961;BME280;61141;46.204;19.774;2023-03-14T03:22:02;99756.41;;;6.54;59.70
72961;BME280;61141;46.204;19.774;2023-03-14T03:25:07;99764.50;;;6.50;59.33
72961;BME280;61141;46.204;19.774;2023-03-14T03:28:10;99747.31;;;6.66;59.68
72961;BME280;61141;46.204;19.774;2023-03-14T03:31:13;99723.56;;;6.63;59.09
72961;BME280;61141;46.204;19.774;2023-03-14T03:34:17;99720.53;;;6.68;59.43
72961;BME280;61141;46.204;19.774;2023-03-14T03:37:23;99705.28;;;6.63;59.22
72961;BME280;61141;46.204;19.774;2023-03-14T03:40:27;99716.94;;;6.64;59.62
72961;BME280;61141;46.204;19.774;2023-03-14T03:43:31;99716.81;;;6.57;59.35
72961;BME280;61141;46.204;19.774;2023-03-14T03:46:34;99717.38;;;6.46;59.37
72961;BME280;61141;46.204;19.774;2023-03-14T03:49:37;99717.88;;;6.52;59.21
72961;BME280;61141;46.204;19.774;2023-03-14T03:52:43;99713.63;;;6.55;59.40
72961;BME280;61141;46.204;19.774;2023-03-14T03:55:46;99705.22;;;6.60;59.78
72961;BME280;61141;46.204;19.774;2023-03-14T03:58:49;99695.59;;;6.66;59.24
72961;BME280;61141;46.204;19.774;2023-03-14T04:01:52;99686.72;;;6.69;59.19
72961;BME280;61141;46.204;19.774;2023-03-14T04:04:55;99685.28;;;6.75;58.84
72961;BME280;61141;46.204;19.774;2023-03-14T04:07:58;99695.87;;;6.80;59.74
72961;BME280;61141;46.204;19.774;2023-03-14T04:11:03;99668.25;;;6.78;60.00
72961;BME280;61141;46.204;19.774;2023-03-14T04:14:07;99691.22;;;6.80;59.59
72961;BME280;61141;46.204;19.774;2023-03-14T04:17:10;99682.00;;;6.66;60.08
72961;BME280;61141;46.204;19.774;2023-03-14T04:20:13;99657.66;;;6.54;59.73
72961;BME280;61141;46.204;19.774;2023-03-14T04:23:16;99668.84;;;6.68;60.54
72961;BME280;61141;46.204;19.774;2023-03-14T04:26:19;99676.56;;;6.66;60.19
72961;BME280;61141;46.204;19.774;2023-03-14T04:29:23;99660.00;;;6.74;60.70
72961;BME280;61141;46.204;19.774;2023-03-14T04:32:26;99652.06;;;6.66;60.16
72961;BME280;61141;46.204;19.774;2023-03-14T04:35:30;99654.38;;;6.64;60.09
72961;BME280;61141;46.204;19.774;2023-03-14T04:38:34;99655.12;;;6.83;60.74
72961;BME280;61141;46.204;19.774;2023-03-14T04:41:37;99647.19;;;6.75;60.69
72961;BME280;61141;46.204;19.774;2023-03-14T04:44:41;99632.38;;;6.72;61.06
72961;BME280;61141;46.204;19.774;2023-03-14T04:47:46;99623.41;;;6.72;60.36
72961;BME280;61141;46.204;19.774;2023-03-14T04:50:50;99619.84;;;6.68;59.81
72961;BME280;61141;46.204;19.774;2023-03-14T04:53:54;99618.56;;;6.62;60.04
72961;BME280;61141;46.204;19.774;2023-03-14T04:56:57;99612.75;;;6.63;60.48
72961;BME280;61141;46.204;19.774;2023-03-14T05:00:03;99621.72;;;6.64;60.54
72961;BME280;61141;46.204;19.774;2023-03-14T05:03:11;99631.66;;;6.75;61.14
72961;BME280;61141;46.204;19.774;2023-03-14T05:06:15;99626.59;;;6.74;60.59
72961;BME280;61141;46.204;19.774;2023-03-14T05:09:18;99612.09;;;6.70;59.94
72961;BME280;61141;46.204;19.774;2023-03-14T05:12:22;99620.37;;;6.77;59.99
72961;BME280;61141;46.204;19.774;2023-03-14T05:15:25;99615.81;;;6.81;59.74
72961;BME280;61141;46.204;19.774;2023-03-14T05:18:30;99634.00;;;6.77;59.75
72961;BME280;61141;46.204;19.774;2023-03-14T05:21:33;99622.28;;;6.73;59.96
72961;BME280;61141;46.204;19.774;2023-03-14T05:24:36;99610.13;;;6.89;60.35
72961;BME280;61141;46.204;19.774;2023-03-14T05:27:39;99610.94;;;6.90;60.59
72961;BME280;61141;46.204;19.774;2023-03-14T05:30:46;99621.75;;;6.86;60.46
72961;BME280;61141;46.204;19.774;2023-03-14T05:33:49;99620.84;;;6.79;60.73
72961;BME280;61141;46.204;19.774;2023-03-14T05:36:53;99603.63;;;6.75;59.89
72961;BME280;61141;46.204;19.774;2023-03-14T05:39:55;99612.44;;;6.87;60.16
72961;BME280;61141;46.204;19.774;2023-03-14T05:42:59;99616.31;;;6.86;60.12
72961;BME280;61141;46.204;19.774;2023-03-14T05:46:04;99616.38;;;6.90;59.44
72961;BME280;61141;46.204;19.774;2023-03-14T05:49:07;99616.97;;;7.02;59.38
72961;BME280;61141;46.204;19.774;2023-03-14T05:52:11;99616.47;;;6.97;59.41
72961;BME280;61141;46.204;19.774;2023-03-14T05:55:16;99618.09;;;7.24;59.78
72961;BME280;61141;46.204;19.774;2023-03-14T05:58:19;99610.25;;;7.19;59.00
72961;BME280;61141;46.204;19.774;2023-03-14T06:01:23;99607.81;;;7.37;59.16
72961;BME280;61141;46.204;19.774;2023-03-14T06:04:27;99606.50;;;7.53;58.71
72961;BME280;61141;46.204;19.774;2023-03-14T06:07:30;99601.28;;;7.67;58.45
72961;BME280;61141;46.204;19.774;2023-03-14T06:10:35;99598.25;;;7.76;58.02
72961;BME280;61141;46.204;19.774;2023-03-14T06:13:38;99615.84;;;7.52;57.63
72961;BME280;61141;46.204;19.774;2023-03-14T06:16:43;99617.34;;;7.50;58.46
72961;BME280;61141;46.204;19.774;2023-03-14T06:19:46;99605.94;;;7.67;58.83
72961;BME280;61141;46.204;19.774;2023-03-14T06:22:49;99591.06;;;7.91;57.53
72961;BME280;61141;46.204;19.774;2023-03-14T06:25:53;99592.91;;;7.83;57.35
72961;BME280;61141;46.204;19.774;2023-03-14T06:28:56;99596.50;;;7.91;57.44
72961;BME280;61141;46.204;19.774;2023-03-14T06:31:59;99603.13;;;7.90;58.10
72961;BME280;61141;46.204;19.774;2023-03-14T06:35:02;99595.22;;;8.11;57.95
72961;BME280;61141;46.204;19.774;2023-03-14T06:38:09;99591.75;;;8.14;57.23
72961;BME280;61141;46.204;19.774;2023-03-14T06:41:13;99590.91;;;8.10;56.92
72961;BME280;61141;46.204;19.774;2023-03-14T06:44:17;99592.03;;;8.35;56.65
72961;BME280;61141;46.204;19.774;2023-03-14T06:47:20;99600.22;;;8.35;55.99
72961;BME280;61141;46.204;19.774;2023-03-14T06:50:23;99594.94;;;8.49;56.23
72961;BME280;61141;46.204;19.774;2023-03-14T06:53:27;99597.13;;;8.73;55.79
72961;BME280;61141;46.204;19.774;2023-03-14T06:56:31;99591.88;;;8.95;54.99
72961;BME280;61141;46.204;19.774;2023-03-14T06:59:35;99588.81;;;9.03;54.04
72961;BME280;61141;46.204;19.774;2023-03-14T07:02:38;99590.16;;;8.79;54.84
72961;BME280;61141;46.204;19.774;2023-03-14T07:05:48;99597.09;;;9.10;54.37
72961;BME280;61141;46.204;19.774;2023-03-14T07:08:51;99598.22;;;9.09;53.98
72961;BME280;61141;46.204;19.774;2023-03-14T07:11:54;99594.41;;;9.17;54.35
72961;BME280;61141;46.204;19.774;2023-03-14T07:14:57;99591.41;;;9.33;53.63
72961;BME280;61141;46.204;19.774;2023-03-14T07:18:19;99604.56;;;9.17;53.81
72961;BME280;61141;46.204;19.774;2023-03-14T07:21:21;99603.22;;;9.48;53.98
72961;BME280;61141;46.204;19.774;2023-03-14T07:24:25;99612.84;;;9.27;54.00
72961;BME280;61141;46.204;19.774;2023-03-14T07:27:28;99619.00;;;9.17;54.27
72961;BME280;61141;46.204;19.774;2023-03-14T07:30:32;99619.03;;;9.72;53.63
72961;BME280;61141;46.204;19.774;2023-03-14T07:33:36;99614.31;;;9.72;53.54
72961;BME280;61141;46.204;19.774;2023-03-14T07:36:40;99613.31;;;9.98;52.14
72961;BME280;61141;46.204;19.774;2023-03-14T07:39:42;99608.31;;;10.11;52.01
72961;BME280;61141;46.204;19.774;2023-03-14T07:42:46;99612.25;;;10.17;52.16
72961;BME280;61141;46.204;19.774;2023-03-14T07:45:49;99597.81;;;10.20;51.90
72961;BME280;61141;46.204;19.774;2023-03-14T07:48:57;99602.50;;;10.16;51.42
72961;BME280;61141;46.204;19.774;2023-03-14T07:52:00;99597.44;;;10.21;51.24
72961;BME280;61141;46.204;19.774;2023-03-14T07:55:03;99590.84;;;10.47;50.77
72961;BME280;61141;46.204;19.774;2023-03-14T07:58:06;99590.13;;;10.64;50.52
72961;BME280;61141;46.204;19.774;2023-03-14T08:01:09;99587.44;;;10.78;50.13
72961;BME280;61141;46.204;19.774;2023-03-14T08:04:12;99581.13;;;10.63;50.56
72961;BME280;61141;46.204;19.774;2023-03-14T08:07:15;99583.91;;;10.74;50.32
72961;BME280;61141;46.204;19.774;2023-03-14T08:10:20;99565.50;;;10.89;49.97
72961;BME280;61141;46.204;19.774;2023-03-14T08:13:24;99581.97;;;10.96;49.74
72961;BME280;61141;46.204;19.774;2023-03-14T08:16:28;99567.47;;;11.31;49.44
72961;BME280;61141;46.204;19.774;2023-03-14T08:19:31;99575.72;;;11.48;48.97
72961;BME280;61141;46.204;19.774;2023-03-14T08:22:33;99557.66;;;11.65;47.48
72961;BME280;61141;46.204;19.774;2023-03-14T08:25:37;99556.88;;;11.75;47.80
72961;BME280;61141;46.204;19.774;2023-03-14T08:28:42;99552.13;;;11.90;47.88
72961;BME280;61141;46.204;19.774;2023-03-14T08:31:44;99546.97;;;12.09;46.64
72961;BME280;61141;46.204;19.774;2023-03-14T08:34:48;99548.12;;;12.08;47.34
72961;BME280;61141;46.204;19.774;2023-03-14T08:37:50;99548.81;;;12.26;46.23
72961;BME280;61141;46.204;19.774;2023-03-14T08:40:56;99542.88;;;12.38;46.22
72961;BME280;61141;46.204;19.774;2023-03-14T08:43:59;99543.00;;;12.83;45.19
72961;BME280;61141;46.204;19.774;2023-03-14T08:47:02;99542.09;;;13.00;44.97
72961;BME280;61141;46.204;19.774;2023-03-14T08:50:06;99530.50;;;12.75;44.59
72961;BME280;61141;46.204;19.774;2023-03-14T08:53:11;99527.63;;;12.89;45.38
72961;BME280;61141;46.204;19.774;2023-03-14T08:56:14;99516.69;;;13.33;44.76
72961;BME280;61141;46.204;19.774;2023-03-14T08:59:17;99515.19;;;13.25;44.49
72961;BME280;61141;46.204;19.774;2023-03-14T09:02:21;99497.50;;;13.64;44.13
72961;BME280;61141;46.204;19.774;2023-03-14T09:05:24;99493.13;;;13.29;43.57
72961;BME280;61141;46.204;19.774;2023-03-14T09:08:26;99489.38;;;13.49;43.73
72961;BME280;61141;46.204;19.774;2023-03-14T09:11:29;99488.94;;;13.54;43.99
72961;BME280;61141;46.204;19.774;2023-03-14T09:14:32;99485.16;;;13.41;44.65
72961;BME280;61141;46.204;19.774;2023-03-14T09:17:35;99475.63;;;13.49;43.20
72961;BME280;61141;46.204;19.774;2023-03-14T09:20:39;99478.56;;;13.69;43.26
72961;BME280;61141;46.204;19.774;2023-03-14T09:23:43;99474.91;;;13.76;42.76
72961;BME280;61141;46.204;19.774;2023-03-14T09:26:48;99472.41;;;13.88;42.86
72961;BME280;61141;46.204;19.774;2023-03-14T09:29:50;99464.47;;;13.94;43.46
72961;BME280;61141;46.204;19.774;2023-03-14T09:32:53;99478.50;;;14.03;42.58
72961;BME280;61141;46.204;19.774;2023-03-14T09:35:58;99479.16;;;14.14;42.79
72961;BME280;61141;46.204;19.774;2023-03-14T09:39:02;99481.34;;;14.26;42.82
72961;BME280;61141;46.204;19.774;2023-03-14T09:42:08;99468.28;;;14.60;42.51
72961;BME280;61141;46.204;19.774;2023-03-14T09:45:23;99466.97;;;14.92;41.67
72961;BME280;61141;46.204;19.774;2023-03-14T09:48:30;99458.88;;;15.04;41.41
72961;BME280;61141;46.204;19.774;2023-03-14T09:51:34;99454.75;;;15.36;41.56
72961;BME280;61141;46.204;19.774;2023-03-14T09:54:52;99444.53;;;15.56;40.89
72961;BME280;61141;46.204;19.774;2023-03-14T09:58:00;99448.19;;;15.88;40.50
72961;BME280;61141;46.204;19.774;2023-03-14T10:01:07;99423.00;;;15.86;39.74
72961;BME280;61141;46.204;19.774;2023-03-14T10:04:15;99434.03;;;15.86;39.80
72961;BME280;61141;46.204;19.774;2023-03-14T10:07:31;99423.47;;;15.65;39.77
72961;BME280;61141;46.204;19.774;2023-03-14T10:10:36;99433.28;;;15.66;40.47
72961;BME280;61141;46.204;19.774;2023-03-14T10:14:01;99408.28;;;15.34;41.01
72961;BME280;61141;46.204;19.774;2023-03-14T10:17:10;99412.78;;;15.44;40.73
72961;BME280;61141;46.204;19.774;2023-03-14T10:23:37;99403.75;;;15.44;41.79
72961;BME280;61141;46.204;19.774;2023-03-14T10:26:40;99376.59;;;15.62;40.85
72961;BME280;61141;46.204;19.774;2023-03-14T10:29:58;99389.66;;;15.77;41.22
72961;BME280;61141;46.204;19.774;2023-03-14T10:33:09;99393.22;;;15.94;40.57
72961;BME280;61141;46.204;19.774;2023-03-14T10:36:21;99383.63;;;15.82;40.96
72961;BME280;61141;46.204;19.774;2023-03-14T10:39:31;99367.84;;;15.83;40.74
72961;BME280;61141;46.204;19.774;2023-03-14T10:42:41;99391.87;;;16.02;40.34
72961;BME280;61141;46.204;19.774;2023-03-14T10:45:57;99380.06;;;16.02;40.13
72961;BME280;61141;46.204;19.774;2023-03-14T10:49:05;99370.63;;;15.99;40.34
72961;BME280;61141;46.204;19.774;2023-03-14T10:55:12;99365.81;;;16.03;40.78
72961;BME280;61141;46.204;19.774;2023-03-14T10:58:23;99343.63;;;16.23;40.71
72961;BME280;61141;46.204;19.774;2023-03-14T11:01:44;99351.84;;;16.59;40.02
72961;BME280;61141;46.204;19.774;2023-03-14T11:08:31;99347.69;;;17.12;39.08
72961;BME280;61141;46.204;19.774;2023-03-14T11:11:42;99336.25;;;17.10;38.78
72961;BME280;61141;46.204;19.774;2023-03-14T11:15:02;99322.53;;;17.06;38.22
72961;BME280;61141;46.204;19.774;2023-03-14T11:18:31;99302.16;;;17.13;38.89
72961;BME280;61141;46.204;19.774;2023-03-14T11:34:28;99272.13;;;16.98;39.64
72961;BME280;61141;46.204;19.774;2023-03-14T11:37:36;99262.94;;;17.01;39.17
72961;BME280;61141;46.204;19.774;2023-03-14T11:40:43;99258.75;;;17.10;39.47
72961;BME280;61141;46.204;19.774;2023-03-14T11:43:48;99251.41;;;16.90;39.16
72961;BME280;61141;46.204;19.774;2023-03-14T11:46:56;99240.00;;;16.88;39.03
72961;BME280;61141;46.204;19.774;2023-03-14T11:50:27;99240.97;;;17.23;38.94
72961;BME280;61141;46.204;19.774;2023-03-14T11:53:40;99238.09;;;17.52;38.68
72961;BME280;61141;46.204;19.774;2023-03-14T11:56:53;99224.09;;;17.59;37.91
72961;BME280;61141;46.204;19.774;2023-03-14T12:09:38;99205.34;;;17.50;37.76
72961;BME280;61141;46.204;19.774;2023-03-14T12:12:42;99214.84;;;17.49;37.68
72961;BME280;61141;46.204;19.774;2023-03-14T12:15:59;99219.38;;;17.43;37.70
72961;BME280;61141;46.204;19.774;2023-03-14T12:19:24;99216.41;;;17.50;37.90
72961;BME280;61141;46.204;19.774;2023-03-14T12:22:30;99214.22;;;17.58;37.40
72961;BME280;61141;46.204;19.774;2023-03-14T12:25:34;99177.50;;;17.29;37.72
72961;BME280;61141;46.204;19.774;2023-03-14T12:28:38;99165.78;;;17.25;36.83
72961;BME280;61141;46.204;19.774;2023-03-14T12:31:47;99189.72;;;17.44;37.63
72961;BME280;61141;46.204;19.774;2023-03-14T12:34:49;99179.41;;;17.44;36.70
72961;BME280;61141;46.204;19.774;2023-03-14T12:37:55;99177.22;;;17.39;37.03
72961;BME280;61141;46.204;19.774;2023-03-14T12:41:05;99159.28;;;17.31;36.90
72961;BME280;61141;46.204;19.774;2023-03-14T12:50:46;99153.94;;;17.49;36.96
72961;BME280;61141;46.204;19.774;2023-03-14T13:00:30;99137.66;;;17.39;36.95
72961;BME280;61141;46.204;19.774;2023-03-14T13:03:43;99140.53;;;17.48;37.03
72961;BME280;61141;46.204;19.774;2023-03-14T13:06:57;99144.97;;;17.58;36.91
72961;BME280;61141;46.204;19.774;2023-03-14T13:13:22;99133.78;;;17.62;37.22
72961;BME280;61141;46.204;19.774;2023-03-14T13:16:27;99110.84;;;17.61;37.00
72961;BME280;61141;46.204;19.774;2023-03-14T13:19:31;99120.47;;;17.56;37.04
72961;BME280;61141;46.204;19.774;2023-03-14T13:22:35;99117.28;;;17.58;36.86
72961;BME280;61141;46.204;19.774;2023-03-14T13:25:41;99111.38;;;17.69;36.54
72961;BME280;61141;46.204;19.774;2023-03-14T13:28:44;99097.84;;;17.71;37.11
72961;BME280;61141;46.204;19.774;2023-03-14T13:31:50;99090.66;;;17.73;37.25
72961;BME280;61141;46.204;19.774;2023-03-14T13:34:57;99080.88;;;17.81;36.87
72961;BME280;61141;46.204;19.774;2023-03-14T13:38:01;99066.19;;;17.72;36.48
72961;BME280;61141;46.204;19.774;2023-03-14T13:41:14;99072.56;;;17.81;36.91
72961;BME280;61141;46.204;19.774;2023-03-14T13:44:42;99046.25;;;17.64;36.70
72961;BME280;61141;46.204;19.774;2023-03-14T13:47:45;99043.59;;;17.60;36.56
72961;BME280;61141;46.204;19.774;2023-03-14T13:50:56;99067.28;;;17.74;36.66
72961;BME280;61141;46.204;19.774;2023-03-14T13:54:01;99066.19;;;17.72;36.43
72961;BME280;61141;46.204;19.774;2023-03-14T13:57:06;99063.19;;;17.66;36.61
72961;BME280;61141;46.204;19.774;2023-03-14T14:00:18;99047.69;;;17.69;36.89
72961;BME280;61141;46.204;19.774;2023-03-14T14:03:22;99032.22;;;17.58;36.71
72961;BME280;61141;46.204;19.774;2023-03-14T14:09:37;99052.84;;;17.79;36.83
72961;BME280;61141;46.204;19.774;2023-03-14T14:12:59;99047.25;;;17.70;36.33
72961;BME280;61141;46.204;19.774;2023-03-14T14:16:04;99040.06;;;17.60;36.01
72961;BME280;61141;46.204;19.774;2023-03-14T14:19:07;99030.53;;;17.61;36.23
72961;BME280;61141;46.204;19.774;2023-03-14T14:22:11;99035.41;;;17.57;36.73
72961;BME280;61141;46.204;19.774;2023-03-14T14:25:15;99017.47;;;17.62;36.59
72961;BME280;61141;46.204;19.774;2023-03-14T14:28:32;99029.28;;;17.62;37.08
72961;BME280;61141;46.204;19.774;2023-03-14T14:31:35;99022.12;;;17.52;36.63
72961;BME280;61141;46.204;19.774;2023-03-14T14:34:55;99022.56;;;17.50;36.75
72961;BME280;61141;46.204;19.774;2023-03-14T14:37:59;99025.56;;;17.56;36.64
72961;BME280;61141;46.204;19.774;2023-03-14T14:41:02;99017.94;;;17.47;37.04
72961;BME280;61141;46.204;19.774;2023-03-14T14:44:05;99012.63;;;17.40;37.11
72961;BME280;61141;46.204;19.774;2023-03-14T14:47:12;99013.50;;;17.37;36.95
72961;BME280;61141;46.204;19.774;2023-03-14T14:53:35;99004.38;;;17.28;37.59
72961;BME280;61141;46.204;19.774;2023-03-14T14:56:38;99001.59;;;17.28;37.62
72961;BME280;61141;46.204;19.774;2023-03-14T14:59:42;98994.06;;;17.28;37.62
72961;BME280;61141;46.204;19.774;2023-03-14T15:02:50;98993.88;;;17.23;37.42
72961;BME280;61141;46.204;19.774;2023-03-14T15:05:57;98993.88;;;17.23;37.38
72961;BME280;61141;46.204;19.774;2023-03-14T15:09:00;98993.41;;;17.24;37.93
72961;BME280;61141;46.204;19.774;2023-03-14T15:12:03;98982.22;;;17.28;37.05
72961;BME280;61141;46.204;19.774;2023-03-14T15:15:07;98982.22;;;17.28;37.39
72961;BME280;61141;46.204;19.774;2023-03-14T15:18:18;98991.50;;;17.34;37.71
72961;BME280;61141;46.204;19.774;2023-03-14T15:21:21;98991.50;;;17.34;37.83
72961;BME280;61141;46.204;19.774;2023-03-14T15:24:24;98990.84;;;17.30;37.46
72961;BME280;61141;46.204;19.774;2023-03-14T15:27:28;98976.22;;;17.29;37.83
72961;BME280;61141;46.204;19.774;2023-03-14T15:30:33;98972.28;;;17.18;38.13
72961;BME280;61141;46.204;19.774;2023-03-14T15:33:36;98986.94;;;17.06;38.13
72961;BME280;61141;46.204;19.774;2023-03-14T15:36:39;98991.25;;;16.94;38.35
72961;BME280;61141;46.204;19.774;2023-03-14T15:39:42;98983.00;;;16.81;38.62
72961;BME280;61141;46.204;19.774;2023-03-14T15:42:45;98982.97;;;16.69;38.62
72961;BME280;61141;46.204;19.774;2023-03-14T15:45:48;98981.34;;;16.59;38.80
72961;BME280;61141;46.204;19.774;2023-03-14T15:48:53;98980.75;;;16.51;39.10
72961;BME280;61141;46.204;19.774;2023-03-14T15:51:55;98982.06;;;16.34;39.36
72961;BME280;61141;46.204;19.774;2023-03-14T15:54:59;98975.00;;;16.20;40.08
72961;BME280;61141;46.204;19.774;2023-03-14T15:58:02;98981.06;;;16.15;39.67
72961;BME280;61141;46.204;19.774;2023-03-14T16:01:06;98977.06;;;16.04;40.16
72961;BME280;61141;46.204;19.774;2023-03-14T16:04:12;98969.28;;;15.86;40.61
72961;BME280;61141;46.204;19.774;2023-03-14T16:07:14;98977.13;;;15.88;40.01
72961;BME280;61141;46.204;19.774;2023-03-14T16:10:21;98977.31;;;15.80;40.42
72961;BME280;61141;46.204;19.774;2023-03-14T16:13:24;98975.19;;;15.72;40.43
72961;BME280;61141;46.204;19.774;2023-03-14T16:16:28;98984.34;;;15.69;39.81
72961;BME280;61141;46.204;19.774;2023-03-14T16:19:30;98977.47;;;15.61;39.75
72961;BME280;61141;46.204;19.774;2023-03-14T16:22:34;98978.03;;;15.56;39.77
72961;BME280;61141;46.204;19.774;2023-03-14T16:25:38;98967.34;;;15.42;40.13
72961;BME280;61141;46.204;19.774;2023-03-14T16:28:42;98949.87;;;15.32;40.44
72961;BME280;61141;46.204;19.774;2023-03-14T16:31:45;98948.84;;;15.26;41.25
72961;BME280;61141;46.204;19.774;2023-03-14T16:34:49;98940.41;;;15.17;40.84
72961;BME280;61141;46.204;19.774;2023-03-14T16:37:51;98946.25;;;15.19;40.88
72961;BME280;61141;46.204;19.774;2023-03-14T16:41:12;98939.44;;;15.23;40.92
72961;BME280;61141;46.204;19.774;2023-03-14T16:44:15;98937.66;;;15.17;41.20
72961;BME280;61141;46.204;19.774;2023-03-14T16:47:18;98942.56;;;15.09;41.09
72961;BME280;61141;46.204;19.774;2023-03-14T16:50:25;98949.41;;;15.05;40.98
72961;BME280;61141;46.204;19.774;2023-03-14T16:53:28;98952.25;;;15.01;41.48
72961;BME280;61141;46.204;19.774;2023-03-14T16:56:31;98938.81;;;14.87;41.80
72961;BME280;61141;46.204;19.774;2023-03-14T16:59:35;98943.22;;;14.85;42.63
72961;BME280;61141;46.204;19.774;2023-03-14T17:02:37;98947.44;;;14.73;42.74
72961;BME280;61141;46.204;19.774;2023-03-14T17:05:48;98945.12;;;14.72;42.68
72961;BME280;61141;46.204;19.774;2023-03-14T17:08:54;98952.88;;;14.60;43.06
72961;BME280;61141;46.204;19.774;2023-03-14T17:11:57;98950.59;;;14.55;43.39
72961;BME280;61141;46.204;19.774;2023-03-14T17:15:00;98953.28;;;14.59;43.11
72961;BME280;61141;46.204;19.774;2023-03-14T17:18:04;98953.03;;;14.53;43.49